sensor_id;sensor_type;location;lat;lon;timestamp;P1;durP1;ratioP1;P2;durP2;ratioP2
5418;SDS011;2732;52.092;11.556;2023-05-13T00:00:52;4.97;;;2.90;;
5418;SDS011;2732;52.092;11.556;2023-05-13T00:05:53;5.10;;;2.93;;
5418;SDS011;2732;52.092;11.556;2023-05-13T00:10:54;4.47;;;3.47;;
5418;SDS011;2732;52.092;11.556;2023-05-13T00:15:54;5.53;;;3.03;;
5418;SDS011;2732;52.092;11.556;2023-05-13T00:20:55;3.97;;;2.70;;
5418;SDS011;2732;52.092;11.556;2023-05-13T00:25:55;2.93;;;2.57;;
5418;SDS011;2732;52.092;11.556;2023-05-13T00:30:56;7.43;;;3.00;;
5418;SDS011;2732;52.092;11.556;2023-05-13T00:35:57;4.47;;;2.80;;
5418;SDS011;2732;52.092;11.556;2023-05-13T00:40:57;5.63;;;3.13;;
5418;SDS011;2732;52.092;11.556;2023-05-13T00:45:58;3.73;;;2.93;;
5418;SDS011;2732;52.092;11.556;2023-05-13T00:50:59;5.77;;;3.30;;
5418;SDS011;2732;52.092;11.556;2023-05-13T00:55:59;5.20;;;3.30;;
5418;SDS011;2732;52.092;11.556;2023-05-13T01:06:49;4.40;;;3.80;;
5418;SDS011;2732;52.092;11.556;2023-05-13T01:12:10;7.50;;;3.53;;
5418;SDS011;2732;52.092;11.556;2023-05-13T01:17:31;6.20;;;3.10;;
5418;SDS011;2732;52.092;11.556;2023-05-13T01:22:44;4.97;;;3.90;;
5418;SDS011;2732;52.092;11.556;2023-05-13T01:27:45;8.57;;;4.70;;
5418;SDS011;2732;52.092;11.556;2023-05-13T01:32:45;5.83;;;4.73;;
5418;SDS011;2732;52.092;11.556;2023-05-13T01:37:49;6.73;;;3.70;;
5418;SDS011;2732;52.092;11.556;2023-05-13T01:42:52;6.10;;;4.00;;
5418;SDS011;2732;52.092;11.556;2023-05-13T01:47:52;5.13;;;4.20;;
5418;SDS011;2732;52.092;11.556;2023-05-13T01:52:53;13.37;;;4.00;;
5418;SDS011;2732;52.092;11.556;2023-05-13T01:57:53;5.83;;;3.83;;
5418;SDS011;2732;52.092;11.556;2023-05-13T02:09:10;5.30;;;3.63;;
5418;SDS011;2732;52.092;11.556;2023-05-13T02:14:11;4.57;;;3.83;;
5418;SDS011;2732;52.092;11.556;2023-05-13T02:19:11;4.67;;;4.07;;
5418;SDS011;2732;52.092;11.556;2023-05-13T02:24:12;4.33;;;3.93;;
5418;SDS011;2732;52.092;11.556;2023-05-13T02:29:13;9.80;;;3.97;;
5418;SDS011;2732;52.092;11.556;2023-05-13T02:34:13;4.50;;;4.10;;
5418;SDS011;2732;52.092;11.556;2023-05-13T02:39:14;22.33;;;5.20;;
5418;SDS011;2732;52.092;11.556;2023-05-13T02:44:15;6.43;;;3.97;;
5418;SDS011;2732;52.092;11.556;2023-05-13T02:49:15;5.50;;;4.17;;
5418;SDS011;2732;52.092;11.556;2023-05-13T02:54:16;5.53;;;4.20;;
5418;SDS011;2732;52.092;11.556;2023-05-13T02:59:17;6.33;;;4.37;;
5418;SDS011;2732;52.092;11.556;2023-05-13T03:04:17;5.33;;;3.70;;
5418;SDS011;2732;52.092;11.556;2023-05-13T03:09:18;4.33;;;3.93;;
5418;SDS011;2732;52.092;11.556;2023-05-13T03:14:18;5.17;;;3.93;;
5418;SDS011;2732;52.092;11.556;2023-05-13T03:19:19;3.80;;;3.47;;
5418;SDS011;2732;52.092;11.556;2023-05-13T03:24:19;4.90;;;3.93;;
5418;SDS011;2732;52.092;11.556;2023-05-13T03:29:20;4.83;;;4.40;;
5418;SDS011;2732;52.092;11.556;2023-05-13T03:34:21;8.37;;;4.80;;
5418;SDS011;2732;52.092;11.556;2023-05-13T03:39:21;4.57;;;4.10;;
5418;SDS011;2732;52.092;11.556;2023-05-13T03:44:22;5.43;;;4.90;;
5418;SDS011;2732;52.092;11.556;2023-05-13T03:49:22;5.60;;;4.70;;
5418;SDS011;2732;52.092;11.556;2023-05-13T03:54:23;7.07;;;4.03;;
5418;SDS011;2732;52.092;11.556;2023-05-13T03:59:23;7.33;;;4.67;;
5418;SDS011;2732;52.092;11.556;2023-05-13T04:04:24;8.20;;;5.70;;
5418;SDS011;2732;52.092;11.556;2023-05-13T04:09:25;6.93;;;5.10;;
5418;SDS011;2732;52.092;11.556;2023-05-13T04:14:25;6.03;;;4.30;;
5418;SDS011;2732;52.092;11.556;2023-05-13T04:19:26;5.70;;;4.57;;
5418;SDS011;2732;52.092;11.556;2023-05-13T04:24:26;6.60;;;4.60;;
5418;SDS011;2732;52.092;11.556;2023-05-13T04:29:27;12.40;;;4.37;;
5418;SDS011;2732;52.092;11.556;2023-05-13T04:34:29;4.30;;;3.90;;
5418;SDS011;2732;52.092;11.556;2023-05-13T04:39:30;5.27;;;4.70;;
5418;SDS011;2732;52.092;11.556;2023-05-13T04:44:31;7.57;;;4.87;;
5418;SDS011;2732;52.092;11.556;2023-05-13T04:49:33;4.63;;;4.23;;
5418;SDS011;2732;52.092;11.556;2023-05-13T04:54:34;8.93;;;5.63;;
5418;SDS011;2732;52.092;11.556;2023-05-13T04:59:36;5.27;;;4.77;;
5418;SDS011;2732;52.092;11.556;2023-05-13T05:04:37;6.30;;;5.57;;
5418;SDS011;2732;52.092;11.556;2023-05-13T05:09:37;8.17;;;5.07;;
5418;SDS011;2732;52.092;11.556;2023-05-13T05:14:38;10.10;;;6.13;;
5418;SDS011;2732;52.092;11.556;2023-05-13T05:19:39;9.20;;;5.70;;
5418;SDS011;2732;52.092;11.556;2023-05-13T05:24:39;9.40;;;5.97;;
5418;SDS011;2732;52.092;11.556;2023-05-13T05:29:40;7.90;;;5.53;;
5418;SDS011;2732;52.092;11.556;2023-05-13T05:34:41;9.13;;;6.60;;
5418;SDS011;2732;52.092;11.556;2023-05-13T05:39:41;13.93;;;4.73;;
5418;SDS011;2732;52.092;11.556;2023-05-13T05:44:42;11.27;;;5.00;;
5418;SDS011;2732;52.092;11.556;2023-05-13T05:49:42;8.37;;;4.93;;
5418;SDS011;2732;52.092;11.556;2023-05-13T05:54:43;4.93;;;4.53;;
5418;SDS011;2732;52.092;11.556;2023-05-13T05:59:43;7.00;;;4.33;;
5418;SDS011;2732;52.092;11.556;2023-05-13T06:04:44;6.43;;;4.23;;
5418;SDS011;2732;52.092;11.556;2023-05-13T06:09:45;7.43;;;4.90;;
5418;SDS011;2732;52.092;11.556;2023-05-13T06:14:45;8.03;;;4.33;;
5418;SDS011;2732;52.092;11.556;2023-05-13T06:19:46;8.20;;;4.13;;
5418;SDS011;2732;52.092;11.556;2023-05-13T06:24:46;4.80;;;4.40;;
5418;SDS011;2732;52.092;11.556;2023-05-13T06:29:47;5.03;;;4.53;;
5418;SDS011;2732;52.092;11.556;2023-05-13T06:34:49;4.70;;;4.30;;
5418;SDS011;2732;52.092;11.556;2023-05-13T06:39:51;9.10;;;4.97;;
5418;SDS011;2732;52.092;11.556;2023-05-13T06:44:52;6.33;;;5.20;;
5418;SDS011;2732;52.092;11.556;2023-05-13T06:49:52;7.80;;;4.90;;
5418;SDS011;2732;52.092;11.556;2023-05-13T06:54:53;9.40;;;4.33;;
5418;SDS011;2732;52.092;11.556;2023-05-13T06:59:53;12.70;;;4.80;;
5418;SDS011;2732;52.092;11.556;2023-05-13T07:04:54;6.43;;;4.53;;
5418;SDS011;2732;52.092;11.556;2023-05-13T07:09:55;8.00;;;5.57;;
5418;SDS011;2732;52.092;11.556;2023-05-13T07:14:55;5.47;;;4.97;;
5418;SDS011;2732;52.092;11.556;2023-05-13T07:19:56;6.50;;;4.70;;
5418;SDS011;2732;52.092;11.556;2023-05-13T07:24:57;6.17;;;4.63;;
5418;SDS011;2732;52.092;11.556;2023-05-13T07:29:58;5.30;;;4.80;;
5418;SDS011;2732;52.092;11.556;2023-05-13T07:34:58;7.37;;;5.00;;
5418;SDS011;2732;52.092;11.556;2023-05-13T07:39:59;18.03;;;4.93;;
5418;SDS011;2732;52.092;11.556;2023-05-13T07:44:59;6.63;;;4.83;;
5418;SDS011;2732;52.092;11.556;2023-05-13T07:50:00;9.80;;;5.20;;
5418;SDS011;2732;52.092;11.556;2023-05-13T07:55:01;11.70;;;4.83;;
5418;SDS011;2732;52.092;11.556;2023-05-13T08:00:02;13.73;;;5.37;;
5418;SDS011;2732;52.092;11.556;2023-05-13T08:05:04;5.83;;;4.40;;
5418;SDS011;2732;52.092;11.556;2023-05-13T08:10:05;9.87;;;3.97;;
5418;SDS011;2732;52.092;11.556;2023-05-13T08:15:06;6.33;;;4.30;;
5418;SDS011;2732;52.092;11.556;2023-05-13T08:20:09;8.20;;;4.37;;
5418;SDS011;2732;52.092;11.556;2023-05-13T08:25:11;9.30;;;4.20;;
5418;SDS011;2732;52.092;11.556;2023-05-13T08:30:12;4.60;;;4.20;;
5418;SDS011;2732;52.092;11.556;2023-05-13T08:35:13;3.67;;;3.07;;
5418;SDS011;2732;52.092;11.556;2023-05-13T08:40:14;9.13;;;3.07;;
5418;SDS011;2732;52.092;11.556;2023-05-13T08:45:14;10.10;;;2.10;;
5418;SDS011;2732;52.092;11.556;2023-05-13T08:50:18;3.17;;;2.20;;
5418;SDS011;2732;52.092;11.556;2023-05-13T08:55:20;4.40;;;1.93;;
5418;SDS011;2732;52.092;11.556;2023-05-13T09:00:22;2.17;;;1.97;;
5418;SDS011;2732;52.092;11.556;2023-05-13T09:05:23;9.80;;;2.20;;
5418;SDS011;2732;52.092;11.556;2023-05-13T09:10:24;7.13;;;2.70;;
5418;SDS011;2732;52.092;11.556;2023-05-13T09:15:25;6.70;;;3.17;;
5418;SDS011;2732;52.092;11.556;2023-05-13T09:20:26;6.00;;;1.90;;
5418;SDS011;2732;52.092;11.556;2023-05-13T09:25:28;2.80;;;2.23;;
5418;SDS011;2732;52.092;11.556;2023-05-13T09:30:34;6.83;;;2.23;;
5418;SDS011;2732;52.092;11.556;2023-05-13T09:35:39;4.73;;;2.10;;
5418;SDS011;2732;52.092;11.556;2023-05-13T09:40:53;5.57;;;2.10;;
5418;SDS011;2732;52.092;11.556;2023-05-13T09:45:57;3.60;;;1.90;;
5418;SDS011;2732;52.092;11.556;2023-05-13T09:51:02;6.53;;;2.00;;
5418;SDS011;2732;52.092;11.556;2023-05-13T09:56:04;4.67;;;2.70;;
5418;SDS011;2732;52.092;11.556;2023-05-13T10:01:10;16.07;;;2.07;;
5418;SDS011;2732;52.092;11.556;2023-05-13T10:06:11;12.57;;;4.57;;
5418;SDS011;2732;52.092;11.556;2023-05-13T10:11:14;8.00;;;2.03;;
5418;SDS011;2732;52.092;11.556;2023-05-13T10:16:17;3.17;;;1.70;;
5418;SDS011;2732;52.092;11.556;2023-05-13T10:21:18;2.20;;;1.70;;
5418;SDS011;2732;52.092;11.556;2023-05-13T10:26:19;1.93;;;1.83;;
5418;SDS011;2732;52.092;11.556;2023-05-13T10:31:21;4.70;;;1.80;;
5418;SDS011;2732;52.092;11.556;2023-05-13T10:36:41;4.67;;;1.87;;
5418;SDS011;2732;52.092;11.556;2023-05-13T10:47:29;3.20;;;1.67;;
5418;SDS011;2732;52.092;11.556;2023-05-13T10:52:42;2.07;;;1.80;;
5418;SDS011;2732;52.092;11.556;2023-05-13T10:58:02;3.40;;;1.37;;
5418;SDS011;2732;52.092;11.556;2023-05-13T11:08:37;2.40;;;1.47;;
5418;SDS011;2732;52.092;11.556;2023-05-13T11:13:40;9.63;;;2.20;;
5418;SDS011;2732;52.092;11.556;2023-05-13T11:18:41;3.20;;;2.50;;
5418;SDS011;2732;52.092;11.556;2023-05-13T11:23:51;4.83;;;2.10;;
5418;SDS011;2732;52.092;11.556;2023-05-13T11:28:58;6.60;;;2.13;;
5418;SDS011;2732;52.092;11.556;2023-05-13T11:34:08;3.07;;;2.83;;
5418;SDS011;2732;52.092;11.556;2023-05-13T11:39:17;4.10;;;1.93;;
5418;SDS011;2732;52.092;11.556;2023-05-13T11:44:22;2.27;;;2.07;;
5418;SDS011;2732;52.092;11.556;2023-05-13T11:49:31;5.63;;;1.90;;
5418;SDS011;2732;52.092;11.556;2023-05-13T11:54:41;1.90;;;1.80;;
5418;SDS011;2732;52.092;11.556;2023-05-13T12:04:59;2.30;;;2.13;;
5418;SDS011;2732;52.092;11.556;2023-05-13T12:10:03;1.57;;;1.47;;
5418;SDS011;2732;52.092;11.556;2023-05-13T12:15:06;1.83;;;1.73;;
5418;SDS011;2732;52.092;11.556;2023-05-13T12:30:52;2.20;;;2.10;;
5418;SDS011;2732;52.092;11.556;2023-05-13T12:41:25;3.30;;;2.30;;
5418;SDS011;2732;52.092;11.556;2023-05-13T12:46:31;6.70;;;2.40;;
5418;SDS011;2732;52.092;11.556;2023-05-13T12:51:33;2.17;;;1.97;;
5418;SDS011;2732;52.092;11.556;2023-05-13T12:56:34;6.40;;;2.17;;
5418;SDS011;2732;52.092;11.556;2023-05-13T13:01:35;5.30;;;2.03;;
5418;SDS011;2732;52.092;11.556;2023-05-13T13:06:37;2.60;;;2.00;;
5418;SDS011;2732;52.092;11.556;2023-05-13T13:11:38;6.33;;;2.10;;
5418;SDS011;2732;52.092;11.556;2023-05-13T13:16:39;4.60;;;1.97;;
5418;SDS011;2732;52.092;11.556;2023-05-13T13:21:39;3.83;;;2.60;;
5418;SDS011;2732;52.092;11.556;2023-05-13T13:26:40;7.10;;;2.27;;
5418;SDS011;2732;52.092;11.556;2023-05-13T13:31:41;2.90;;;1.80;;
5418;SDS011;2732;52.092;11.556;2023-05-13T13:36:41;2.47;;;2.27;;
5418;SDS011;2732;52.092;11.556;2023-05-13T13:41:42;2.70;;;2.40;;
5418;SDS011;2732;52.092;11.556;2023-05-13T13:46:42;3.27;;;2.17;;
5418;SDS011;2732;52.092;11.556;2023-05-13T13:51:43;2.93;;;2.20;;
5418;SDS011;2732;52.092;11.556;2023-05-13T13:56:43;4.73;;;1.87;;
5418;SDS011;2732;52.092;11.556;2023-05-13T14:01:44;2.20;;;1.60;;
5418;SDS011;2732;52.092;11.556;2023-05-13T14:06:45;7.30;;;2.50;;
5418;SDS011;2732;52.092;11.556;2023-05-13T14:11:46;10.20;;;2.30;;
5418;SDS011;2732;52.092;11.556;2023-05-13T14:16:47;2.67;;;2.43;;
5418;SDS011;2732;52.092;11.556;2023-05-13T14:21:47;3.83;;;2.57;;
5418;SDS011;2732;52.092;11.556;2023-05-13T14:26:48;2.23;;;1.97;;
5418;SDS011;2732;52.092;11.556;2023-05-13T14:31:49;2.20;;;2.03;;
5418;SDS011;2732;52.092;11.556;2023-05-13T14:36:51;3.07;;;2.17;;
5418;SDS011;2732;52.092;11.556;2023-05-13T14:41:51;3.73;;;2.27;;
5418;SDS011;2732;52.092;11.556;2023-05-13T14:46:52;3.70;;;2.10;;
5418;SDS011;2732;52.092;11.556;2023-05-13T14:51:53;3.53;;;2.53;;
5418;SDS011;2732;52.092;11.556;2023-05-13T14:56:54;2.50;;;2.30;;
5418;SDS011;2732;52.092;11.556;2023-05-13T15:01:55;4.37;;;1.80;;
5418;SDS011;2732;52.092;11.556;2023-05-13T15:06:55;8.47;;;2.67;;
5418;SDS011;2732;52.092;11.556;2023-05-13T15:11:57;4.67;;;2.20;;
5418;SDS011;2732;52.092;11.556;2023-05-13T15:16:57;7.83;;;2.20;;
5418;SDS011;2732;52.092;11.556;2023-05-13T15:21:58;2.83;;;1.87;;
5418;SDS011;2732;52.092;11.556;2023-05-13T15:26:59;3.67;;;1.80;;
5418;SDS011;2732;52.092;11.556;2023-05-13T15:32:00;1.90;;;1.80;;
5418;SDS011;2732;52.092;11.556;2023-05-13T15:37:01;4.10;;;2.00;;
5418;SDS011;2732;52.092;11.556;2023-05-13T15:42:01;3.10;;;2.00;;
5418;SDS011;2732;52.092;11.556;2023-05-13T15:47:02;2.90;;;2.10;;
5418;SDS011;2732;52.092;11.556;2023-05-13T15:52:04;2.23;;;2.00;;
5418;SDS011;2732;52.092;11.556;2023-05-13T15:57:05;2.80;;;2.20;;
5418;SDS011;2732;52.092;11.556;2023-05-13T16:02:06;3.13;;;2.20;;
5418;SDS011;2732;52.092;11.556;2023-05-13T16:07:06;3.33;;;1.80;;
5418;SDS011;2732;52.092;11.556;2023-05-13T16:12:11;5.57;;;2.30;;
5418;SDS011;2732;52.092;11.556;2023-05-13T16:17:12;5.23;;;2.40;;
5418;SDS011;2732;52.092;11.556;2023-05-13T16:22:27;3.03;;;2.20;;
5418;SDS011;2732;52.092;11.556;2023-05-13T16:27:32;2.50;;;2.27;;
5418;SDS011;2732;52.092;11.556;2023-05-13T16:32:35;8.73;;;2.50;;
5418;SDS011;2732;52.092;11.556;2023-05-13T16:37:36;3.80;;;2.07;;
5418;SDS011;2732;52.092;11.556;2023-05-13T16:42:36;2.73;;;2.20;;
5418;SDS011;2732;52.092;11.556;2023-05-13T16:47:37;2.40;;;2.10;;
5418;SDS011;2732;52.092;11.556;2023-05-13T16:52:37;2.33;;;2.23;;
5418;SDS011;2732;52.092;11.556;2023-05-13T16:57:38;4.07;;;2.00;;
5418;SDS011;2732;52.092;11.556;2023-05-13T17:02:39;7.40;;;1.83;;
5418;SDS011;2732;52.092;11.556;2023-05-13T17:07:41;3.47;;;2.20;;
5418;SDS011;2732;52.092;11.556;2023-05-13T17:12:42;2.47;;;1.97;;
5418;SDS011;2732;52.092;11.556;2023-05-13T17:17:42;5.57;;;3.70;;
5418;SDS011;2732;52.092;11.556;2023-05-13T17:22:44;1.80;;;1.70;;
5418;SDS011;2732;52.092;11.556;2023-05-13T17:27:46;2.10;;;1.90;;
5418;SDS011;2732;52.092;11.556;2023-05-13T17:32:46;3.97;;;3.17;;
5418;SDS011;2732;52.092;11.556;2023-05-13T17:37:47;2.53;;;2.43;;
5418;SDS011;2732;52.092;11.556;2023-05-13T17:42:47;3.43;;;2.83;;
5418;SDS011;2732;52.092;11.556;2023-05-13T17:47:48;4.23;;;2.00;;
5418;SDS011;2732;52.092;11.556;2023-05-13T17:52:49;2.40;;;2.20;;
5418;SDS011;2732;52.092;11.556;2023-05-13T17:57:51;3.57;;;2.40;;
5418;SDS011;2732;52.092;11.556;2023-05-13T18:02:54;2.40;;;2.20;;
5418;SDS011;2732;52.092;11.556;2023-05-13T18:07:54;3.00;;;2.57;;
5418;SDS011;2732;52.092;11.556;2023-05-13T18:12:55;10.83;;;2.60;;
5418;SDS011;2732;52.092;11.556;2023-05-13T18:17:56;2.90;;;2.17;;
5418;SDS011;2732;52.092;11.556;2023-05-13T18:22:57;7.63;;;2.40;;
5418;SDS011;2732;52.092;11.556;2023-05-13T18:27:57;2.13;;;2.03;;
5418;SDS011;2732;52.092;11.556;2023-05-13T18:32:58;3.83;;;2.47;;
5418;SDS011;2732;52.092;11.556;2023-05-13T18:37:58;3.50;;;2.10;;
5418;SDS011;2732;52.092;11.556;2023-05-13T18:42:59;2.63;;;2.43;;
5418;SDS011;2732;52.092;11.556;2023-05-13T18:48:00;2.90;;;1.90;;
5418;SDS011;2732;52.092;11.556;2023-05-13T18:53:01;3.07;;;2.37;;
5418;SDS011;2732;52.092;11.556;2023-05-13T18:58:01;2.60;;;2.00;;
5418;SDS011;2732;52.092;11.556;2023-05-13T19:03:02;2.03;;;1.93;;
5418;SDS011;2732;52.092;11.556;2023-05-13T19:08:03;2.20;;;2.10;;
5418;SDS011;2732;52.092;11.556;2023-05-13T19:13:04;2.30;;;2.20;;
5418;SDS011;2732;52.092;11.556;2023-05-13T19:18:06;3.00;;;2.80;;
5418;SDS011;2732;52.092;11.556;2023-05-13T19:23:06;4.37;;;2.93;;
5418;SDS011;2732;52.092;11.556;2023-05-13T19:28:14;2.80;;;2.60;;
5418;SDS011;2732;52.092;11.556;2023-05-13T19:33:15;4.97;;;2.53;;
5418;SDS011;2732;52.092;11.556;2023-05-13T19:38:16;3.70;;;2.87;;
5418;SDS011;2732;52.092;11.556;2023-05-13T19:43:17;3.53;;;2.37;;
5418;SDS011;2732;52.092;11.556;2023-05-13T19:48:17;1.80;;;1.70;;
5418;SDS011;2732;52.092;11.556;2023-05-13T19:53:18;3.30;;;1.97;;
5418;SDS011;2732;52.092;11.556;2023-05-13T19:58:20;2.50;;;1.60;;
5418;SDS011;2732;52.092;11.556;2023-05-13T20:03:21;1.97;;;1.87;;
5418;SDS011;2732;52.092;11.556;2023-05-13T20:08:21;2.40;;;1.87;;
5418;SDS011;2732;52.092;11.556;2023-05-13T20:13:22;3.03;;;1.80;;
5418;SDS011;2732;52.092;11.556;2023-05-13T20:18:23;1.90;;;1.80;;
5418;SDS011;2732;52.092;11.556;2023-05-13T20:23:24;2.37;;;2.27;;
5418;SDS011;2732;52.092;11.556;2023-05-13T20:28:25;4.10;;;1.90;;
5418;SDS011;2732;52.092;11.556;2023-05-13T20:33:25;2.10;;;2.00;;
5418;SDS011;2732;52.092;11.556;2023-05-13T20:38:26;1.97;;;1.87;;
5418;SDS011;2732;52.092;11.556;2023-05-13T20:43:27;2.57;;;2.37;;
5418;SDS011;2732;52.092;11.556;2023-05-13T20:48:32;2.13;;;2.03;;
5418;SDS011;2732;52.092;11.556;2023-05-13T20:53:34;3.03;;;2.57;;
5418;SDS011;2732;52.092;11.556;2023-05-13T20:58:35;2.90;;;2.70;;
5418;SDS011;2732;52.092;11.556;2023-05-13T21:03:36;8.10;;;2.40;;
5418;SDS011;2732;52.092;11.556;2023-05-13T21:08:36;3.90;;;2.40;;
5418;SDS011;2732;52.092;11.556;2023-05-13T21:13:39;2.50;;;2.30;;
5418;SDS011;2732;52.092;11.556;2023-05-13T21:18:39;2.93;;;2.73;;
5418;SDS011;2732;52.092;11.556;2023-05-13T21:23:41;2.67;;;2.47;;
5418;SDS011;2732;52.092;11.556;2023-05-13T21:28:43;2.67;;;2.50;;
5418;SDS011;2732;52.092;11.556;2023-05-13T21:33:43;3.47;;;2.77;;
5418;SDS011;2732;52.092;11.556;2023-05-13T21:38:44;3.23;;;2.93;;
5418;SDS011;2732;52.092;11.556;2023-05-13T21:43:44;5.43;;;2.90;;
5418;SDS011;2732;52.092;11.556;2023-05-13T21:48:45;2.63;;;2.53;;
5418;SDS011;2732;52.092;11.556;2023-05-13T21:53:46;2.40;;;2.20;;
5418;SDS011;2732;52.092;11.556;2023-05-13T21:58:47;5.93;;;2.60;;
5418;SDS011;2732;52.092;11.556;2023-05-13T22:03:48;3.83;;;2.73;;
5418;SDS011;2732;52.092;11.556;2023-05-13T22:08:49;3.17;;;3.03;;
5418;SDS011;2732;52.092;11.556;2023-05-13T22:13:49;4.53;;;2.87;;
5418;SDS011;2732;52.092;11.556;2023-05-13T22:18:52;3.00;;;2.80;;
5418;SDS011;2732;52.092;11.556;2023-05-13T22:23:57;3.80;;;3.50;;
5418;SDS011;2732;52.092;11.556;2023-05-13T22:28:58;4.07;;;3.77;;
5418;SDS011;2732;52.092;11.556;2023-05-13T22:33:58;3.30;;;3.10;;
5418;SDS011;2732;52.092;11.556;2023-05-13T22:38:59;3.87;;;2.73;;
5418;SDS011;2732;52.092;11.556;2023-05-13T22:43:59;5.40;;;3.00;;
5418;SDS011;2732;52.092;11.556;2023-05-13T22:49:00;3.30;;;3.00;;
5418;SDS011;2732;52.092;11.556;2023-05-13T22:54:00;3.40;;;3.20;;
5418;SDS011;2732;52.092;11.556;2023-05-13T22:59:01;8.17;;;4.10;;
5418;SDS011;2732;52.092;11.556;2023-05-13T23:04:02;5.97;;;4.27;;
5418;SDS011;2732;52.092;11.556;2023-05-13T23:09:04;5.60;;;5.17;;
5418;SDS011;2732;52.092;11.556;2023-05-13T23:14:06;4.53;;;4.27;;
5418;SDS011;2732;52.092;11.556;2023-05-13T23:19:07;6.17;;;4.23;;
5418;SDS011;2732;52.092;11.556;2023-05-13T23:24:09;4.67;;;4.20;;
5418;SDS011;2732;52.092;11.556;2023-05-13T23:29:09;7.87;;;4.37;;
5418;SDS011;2732;52.092;11.556;2023-05-13T23:34:12;4.67;;;4.10;;
5418;SDS011;2732;52.092;11.556;2023-05-13T23:39:13;5.47;;;4.70;;
5418;SDS011;2732;52.092;11.556;2023-05-13T23:44:13;4.57;;;4.17;;
5418;SDS011;2732;52.092;11.556;2023-05-13T23:49:14;4.03;;;3.73;;
5418;SDS011;2732;52.092;11.556;2023-05-13T23:54:15;6.13;;;4.93;;
5418;SDS011;2732;52.092;11.556;2023-05-13T23:59:16;5.10;;;4.60;;
